Elmers End, United Kingdom
Current Conditions -  °F | °C
As of 9:50 AM on Tuesday 21 Oct 2014 (Local Time) from EGKB Reporting Station
Scattered Clouds Scattered Clouds  
Wind Chill: 55°   Ceiling: Unl
Heat Index: 55°   Visibility: 6mi
Dew Point: 48°   Wind: 23mph
Humidity: 77%   Direction: 260°W
Pressure: 29.59"   Gusts: 35mph
Location:  51.4°N, 0.08°W
Report Text: EGKB 210850Z 26020G30KT 230V290 9999 SCT020 13/09 Q1002
Loading
Personal Weather Stations






























Interactive Weather Map
Tropical Storm Tracking
New forecast layout! Learn more

10-Day Weather Forecast

Advertisements
Track Severe Weather on mobile